createdAt,value
2023-09-17T00:00:14.211Z,14.90
2023-09-17T00:01:11.807Z,14.93
2023-09-17T00:02:09.287Z,14.93
2023-09-17T00:03:06.907Z,14.98
2023-09-17T00:04:05.456Z,15.00
2023-09-17T00:05:02.606Z,14.95
2023-09-17T00:06:00.484Z,14.88
2023-09-17T00:06:57.549Z,14.93
2023-09-17T00:07:54.516Z,14.94
2023-09-17T00:08:51.741Z,14.99
2023-09-17T00:09:48.788Z,15.02
2023-09-17T00:10:46.698Z,15.01
2023-09-17T00:11:43.750Z,15.00
2023-09-17T00:12:40.964Z,15.04
2023-09-17T00:13:39.772Z,15.02
2023-09-17T00:14:37.237Z,14.98
2023-09-17T00:15:34.293Z,15.01
2023-09-17T00:16:33.304Z,15.04
2023-09-17T00:17:30.577Z,15.14
2023-09-17T00:18:28.322Z,15.21
2023-09-17T00:19:25.442Z,15.29
2023-09-17T00:20:22.612Z,15.31
2023-09-17T00:21:19.812Z,15.24
2023-09-17T00:22:17.015Z,15.21
2023-09-17T00:23:14.178Z,15.20
2023-09-17T00:24:11.258Z,15.22
2023-09-17T00:25:08.653Z,15.23
2023-09-17T00:26:05.674Z,15.25
2023-09-17T00:27:03.360Z,15.25
2023-09-17T00:28:00.523Z,15.30
2023-09-17T00:28:57.609Z,15.28
2023-09-17T00:29:54.667Z,15.25
2023-09-17T00:30:51.798Z,15.32
2023-09-17T00:31:48.914Z,15.34
2023-09-17T00:32:45.918Z,15.38
2023-09-17T00:33:43.049Z,15.48
2023-09-17T00:34:40.149Z,15.47
2023-09-17T00:35:37.255Z,15.44
2023-09-17T00:36:34.300Z,15.44
2023-09-17T00:37:31.387Z,15.43
2023-09-17T00:38:28.363Z,15.49
2023-09-17T00:39:25.324Z,15.49
2023-09-17T00:40:24.905Z,15.48
2023-09-17T00:41:21.972Z,15.52
2023-09-17T00:42:18.995Z,15.50
2023-09-17T00:43:16.105Z,15.52
2023-09-17T00:44:13.412Z,15.54
2023-09-17T00:45:13.174Z,15.66
2023-09-17T00:46:10.313Z,15.68
2023-09-17T00:47:09.222Z,15.68
2023-09-17T00:48:06.755Z,15.63
2023-09-17T00:49:04.363Z,15.63
2023-09-17T00:50:02.014Z,15.65
2023-09-17T00:50:59.205Z,15.68
2023-09-17T00:51:57.183Z,15.69
2023-09-17T00:52:54.497Z,15.70
2023-09-17T00:53:52.120Z,15.68
2023-09-17T00:54:51.401Z,15.63
2023-09-17T00:55:48.946Z,15.65
2023-09-17T00:56:46.075Z,15.64
2023-09-17T00:57:47.155Z,15.66
2023-09-17T00:58:45.686Z,15.62
2023-09-17T00:59:46.339Z,15.59
2023-09-17T01:00:43.747Z,15.46
2023-09-17T01:01:41.209Z,15.47
2023-09-17T01:02:38.992Z,15.40
2023-09-17T01:03:38.176Z,15.46
2023-09-17T01:04:35.377Z,15.42
2023-09-17T01:05:38.383Z,15.42
2023-09-17T01:06:37.245Z,15.41
2023-09-17T01:07:35.959Z,15.41
2023-09-17T01:08:33.057Z,15.41
2023-09-17T01:09:30.921Z,15.41
2023-09-17T01:10:28.083Z,15.42
2023-09-17T01:11:25.717Z,15.41
2023-09-17T01:12:22.887Z,15.31
2023-09-17T01:13:20.526Z,15.35
2023-09-17T01:14:17.845Z,15.35
2023-09-17T01:15:14.922Z,15.36
2023-09-17T01:16:11.949Z,15.36
2023-09-17T01:17:12.085Z,15.35
2023-09-17T01:18:10.988Z,15.38
2023-09-17T01:19:10.517Z,15.38
2023-09-17T01:20:27.254Z,15.36
2023-09-17T01:21:43.522Z,15.44
2023-09-17T01:22:45.656Z,15.36
2023-09-17T01:23:48.700Z,15.43
2023-09-17T01:25:08.868Z,15.30
2023-09-17T01:26:18.341Z,15.42
2023-09-17T01:27:17.865Z,15.50
2023-09-17T01:28:15.338Z,15.55
2023-09-17T01:29:14.966Z,15.59
2023-09-17T01:30:17.361Z,15.68
2023-09-17T01:31:14.624Z,15.72
2023-09-17T01:32:13.100Z,15.73
2023-09-17T01:33:13.408Z,15.73
2023-09-17T01:34:10.637Z,15.75
2023-09-17T01:35:07.923Z,15.75
2023-09-17T01:36:08.760Z,15.77
2023-09-17T01:37:31.539Z,15.78
2023-09-17T01:38:33.773Z,15.73
2023-09-17T01:39:35.148Z,15.71
2023-09-17T01:40:33.269Z,15.67
2023-09-17T01:41:30.394Z,15.62
2023-09-17T01:42:27.727Z,15.64
2023-09-17T01:43:24.854Z,15.56
2023-09-17T01:44:23.701Z,15.56
2023-09-17T01:45:22.214Z,15.51
2023-09-17T01:46:19.765Z,15.48
2023-09-17T01:47:18.020Z,15.46
2023-09-17T01:48:16.990Z,15.54
2023-09-17T01:49:14.331Z,15.57
2023-09-17T01:50:12.600Z,15.62
2023-09-17T01:51:10.605Z,15.64
2023-09-17T01:52:08.096Z,15.61
2023-09-17T01:53:05.574Z,15.51
2023-09-17T01:54:03.072Z,15.43
2023-09-17T01:55:01.876Z,15.42
2023-09-17T01:55:58.857Z,15.39
2023-09-17T01:56:55.942Z,15.40
2023-09-17T01:57:52.945Z,15.39
2023-09-17T01:58:49.925Z,15.34
2023-09-17T01:59:46.932Z,15.36
2023-09-17T02:00:43.972Z,15.40
2023-09-17T02:01:41.021Z,15.34
2023-09-17T02:02:38.364Z,15.30
2023-09-17T02:03:35.507Z,15.37
2023-09-17T02:04:32.624Z,15.31
2023-09-17T02:05:29.734Z,15.27
2023-09-17T02:06:27.155Z,15.26
2023-09-17T02:07:24.378Z,15.31
2023-09-17T02:08:21.418Z,15.32
2023-09-17T02:09:18.497Z,15.36
2023-09-17T02:10:15.624Z,15.35
2023-09-17T02:11:12.575Z,15.35
2023-09-17T02:12:09.477Z,15.21
2023-09-17T02:13:06.552Z,15.25
2023-09-17T02:14:04.258Z,15.23
2023-09-17T02:15:01.346Z,15.29
2023-09-17T02:15:59.051Z,15.35
2023-09-17T02:16:56.801Z,15.34
2023-09-17T02:17:54.127Z,15.28
2023-09-17T02:18:52.753Z,15.28
2023-09-17T02:19:49.791Z,15.38
2023-09-17T02:20:46.978Z,15.42
2023-09-17T02:21:44.036Z,15.43
2023-09-17T02:22:41.251Z,15.42
2023-09-17T02:23:38.319Z,15.38
2023-09-17T02:24:35.272Z,15.40
2023-09-17T02:25:32.283Z,15.42
2023-09-17T02:26:29.302Z,15.40
2023-09-17T02:27:26.341Z,15.39
2023-09-17T02:28:23.488Z,15.38
2023-09-17T02:29:20.521Z,15.41
2023-09-17T02:30:17.614Z,15.56
2023-09-17T02:31:14.930Z,15.51
2023-09-17T02:32:12.065Z,15.54
2023-09-17T02:33:11.890Z,15.60
2023-09-17T02:34:09.011Z,15.59
2023-09-17T02:35:08.427Z,15.61
2023-09-17T02:36:05.631Z,15.61
2023-09-17T02:37:03.019Z,15.66
2023-09-17T02:38:00.129Z,15.71
2023-09-17T02:38:57.842Z,15.65
2023-09-17T02:39:54.801Z,15.59
2023-09-17T02:40:51.882Z,15.69
2023-09-17T02:41:49.397Z,15.70
2023-09-17T02:42:47.285Z,15.68
2023-09-17T02:43:44.698Z,15.67
2023-09-17T02:44:41.972Z,15.74
2023-09-17T02:45:39.229Z,15.66
2023-09-17T02:46:36.625Z,15.60
2023-09-17T02:47:35.196Z,15.64
2023-09-17T02:48:33.570Z,15.68
2023-09-17T02:49:30.634Z,15.70
2023-09-17T02:50:27.773Z,15.72
2023-09-17T02:51:24.759Z,15.58
2023-09-17T02:52:21.935Z,15.62
2023-09-17T02:53:21.169Z,15.61
2023-09-17T02:54:18.734Z,15.67
2023-09-17T02:55:15.814Z,15.54
2023-09-17T02:56:12.911Z,15.54
2023-09-17T02:57:10.037Z,15.52
2023-09-17T02:58:07.090Z,15.62
2023-09-17T02:59:04.905Z,15.67
2023-09-17T03:00:01.958Z,15.65
2023-09-17T03:00:59.013Z,15.64
2023-09-17T03:01:56.376Z,15.66
2023-09-17T03:02:56.201Z,15.69
2023-09-17T03:03:53.488Z,15.78
2023-09-17T03:04:54.313Z,15.83
2023-09-17T03:05:51.247Z,15.81
2023-09-17T03:06:48.455Z,15.82
2023-09-17T03:07:45.742Z,15.77
2023-09-17T03:08:43.196Z,15.70
2023-09-17T03:09:40.386Z,15.69
2023-09-17T03:10:44.121Z,15.73
2023-09-17T03:11:41.346Z,15.75
2023-09-17T03:12:39.766Z,15.76
2023-09-17T03:13:37.661Z,15.75
2023-09-17T03:14:34.637Z,15.75
2023-09-17T03:15:31.708Z,15.68
2023-09-17T03:16:28.844Z,15.67
2023-09-17T03:17:26.335Z,15.66
2023-09-17T03:18:23.476Z,15.68
2023-09-17T03:19:21.371Z,15.68
2023-09-17T03:20:23.742Z,15.63
2023-09-17T03:21:20.846Z,15.59
2023-09-17T03:22:18.293Z,15.54
2023-09-17T03:23:16.338Z,15.52
2023-09-17T03:24:16.420Z,15.60
2023-09-17T03:25:15.029Z,15.60
2023-09-17T03:26:12.187Z,15.55
2023-09-17T03:27:09.158Z,15.50
2023-09-17T03:28:06.657Z,15.50
2023-09-17T03:29:03.824Z,15.48
2023-09-17T03:30:05.335Z,15.41
2023-09-17T03:31:02.882Z,15.43
2023-09-17T03:31:59.937Z,15.39
2023-09-17T03:33:05.045Z,15.33
2023-09-17T03:34:02.775Z,15.33
2023-09-17T03:34:59.873Z,15.33
2023-09-17T03:35:56.903Z,15.30
2023-09-17T03:36:53.955Z,15.26
2023-09-17T03:37:51.880Z,15.34
2023-09-17T03:38:48.875Z,15.26
2023-09-17T03:39:57.605Z,15.25
2023-09-17T03:40:54.740Z,15.16
2023-09-17T03:41:51.695Z,15.11
2023-09-17T03:42:48.927Z,15.15
2023-09-17T03:43:46.768Z,15.11
2023-09-17T03:44:43.782Z,15.10
2023-09-17T03:45:42.336Z,15.03
2023-09-17T03:46:39.930Z,15.03
2023-09-17T03:47:40.970Z,14.97
2023-09-17T03:48:39.574Z,14.97
2023-09-17T03:49:36.801Z,14.93
2023-09-17T03:50:34.364Z,14.97
2023-09-17T03:51:32.028Z,14.98
2023-09-17T03:52:29.771Z,14.88
2023-09-17T03:53:27.426Z,14.95
2023-09-17T03:54:24.423Z,14.89
2023-09-17T03:55:22.132Z,14.84
2023-09-17T03:56:19.147Z,14.83
2023-09-17T03:57:16.184Z,14.80
2023-09-17T03:58:13.757Z,14.74
2023-09-17T03:59:10.967Z,14.74
2023-09-17T04:00:09.308Z,14.70
2023-09-17T04:01:09.750Z,14.70
2023-09-17T04:02:06.876Z,14.68
2023-09-17T04:03:06.652Z,14.68
2023-09-17T04:04:03.877Z,14.65
2023-09-17T04:05:01.098Z,14.69
2023-09-17T04:05:58.441Z,14.73
2023-09-17T04:06:55.539Z,14.60
2023-09-17T04:07:52.701Z,14.64
2023-09-17T04:08:49.774Z,14.58
2023-09-17T04:09:46.938Z,14.65
2023-09-17T04:10:45.404Z,14.60
2023-09-17T04:11:42.448Z,14.65
2023-09-17T04:12:40.839Z,14.55
2023-09-17T04:13:37.935Z,14.51
2023-09-17T04:14:34.951Z,14.52
2023-09-17T04:15:31.981Z,14.55
2023-09-17T04:16:29.370Z,14.60
2023-09-17T04:17:26.579Z,14.54
2023-09-17T04:18:23.804Z,14.46
2023-09-17T04:19:20.826Z,14.45
2023-09-17T04:20:20.218Z,14.52
2023-09-17T04:21:17.481Z,14.44
2023-09-17T04:22:14.526Z,14.49
2023-09-17T04:23:11.502Z,14.52
2023-09-17T04:24:08.804Z,14.46
2023-09-17T04:25:10.646Z,14.44
2023-09-17T04:26:07.723Z,14.44
2023-09-17T04:27:04.856Z,14.37
2023-09-17T04:28:03.624Z,14.41
2023-09-17T04:29:00.725Z,14.40
2023-09-17T04:29:57.684Z,14.39
2023-09-17T04:30:54.694Z,14.38
2023-09-17T04:31:52.829Z,14.28
2023-09-17T04:32:52.129Z,14.37
2023-09-17T04:33:49.512Z,14.34
2023-09-17T04:34:46.881Z,14.34
2023-09-17T04:35:44.190Z,14.27
2023-09-17T04:36:41.333Z,14.27
2023-09-17T04:37:40.004Z,14.30
2023-09-17T04:38:37.048Z,14.35
2023-09-17T04:39:34.182Z,14.39
2023-09-17T04:40:31.287Z,14.43
2023-09-17T04:41:28.349Z,14.39
2023-09-17T04:42:25.393Z,14.38
2023-09-17T04:43:24.472Z,14.35
2023-09-17T04:44:21.978Z,14.45
2023-09-17T04:45:40.868Z,14.37
2023-09-17T04:46:49.646Z,14.30
2023-09-17T04:47:46.648Z,14.44
2023-09-17T04:48:44.080Z,14.35
2023-09-17T04:49:41.372Z,14.40
2023-09-17T04:50:40.307Z,14.32
2023-09-17T04:51:37.476Z,14.44
2023-09-17T04:52:34.543Z,14.37
2023-09-17T04:53:31.620Z,14.45
2023-09-17T04:54:29.017Z,14.38
2023-09-17T04:55:26.549Z,14.35
2023-09-17T04:56:23.701Z,14.39
2023-09-17T04:57:20.837Z,14.47
2023-09-17T04:58:18.638Z,14.53
2023-09-17T04:59:15.686Z,14.48
2023-09-17T05:00:13.783Z,14.56
2023-09-17T05:01:11.457Z,14.50
2023-09-17T05:02:08.670Z,14.52
2023-09-17T05:03:06.234Z,14.43
2023-09-17T05:04:03.666Z,14.48
2023-09-17T05:05:00.705Z,14.59
2023-09-17T05:05:57.792Z,14.56
2023-09-17T05:06:55.548Z,14.61
2023-09-17T05:07:52.743Z,14.56
2023-09-17T05:08:50.089Z,14.55
2023-09-17T05:09:47.404Z,14.59
2023-09-17T05:10:44.820Z,14.74
2023-09-17T05:11:42.543Z,14.69
2023-09-17T05:12:39.642Z,14.81
2023-09-17T05:13:36.664Z,14.88
2023-09-17T05:14:33.694Z,15.07
2023-09-17T05:15:30.746Z,15.24
2023-09-17T05:16:28.040Z,15.45
2023-09-17T05:17:25.079Z,15.56
2023-09-17T05:18:22.245Z,15.53
2023-09-17T05:19:19.299Z,15.55
2023-09-17T05:20:16.436Z,15.48
2023-09-17T05:21:13.555Z,15.41
2023-09-17T05:22:10.577Z,15.44
2023-09-17T05:23:07.728Z,15.46
2023-09-17T05:24:04.998Z,15.60
2023-09-17T05:25:03.282Z,15.50
2023-09-17T05:26:00.547Z,15.59
2023-09-17T05:26:57.943Z,15.60
2023-09-17T05:27:55.071Z,15.59
2023-09-17T05:28:52.074Z,15.65
2023-09-17T05:29:49.136Z,15.64
2023-09-17T05:30:46.367Z,15.73
2023-09-17T05:31:43.755Z,15.74
2023-09-17T05:32:40.928Z,15.75
2023-09-17T05:33:38.025Z,15.72
2023-09-17T05:34:35.080Z,15.79
2023-09-17T05:35:36.587Z,15.81
2023-09-17T05:36:33.656Z,15.81
2023-09-17T05:37:32.180Z,15.85
2023-09-17T05:38:29.451Z,15.84
2023-09-17T05:39:26.776Z,15.95
2023-09-17T05:40:23.958Z,15.90
2023-09-17T05:41:21.021Z,16.01
2023-09-17T05:42:18.209Z,16.19
2023-09-17T05:43:15.236Z,16.39
2023-09-17T05:44:12.307Z,16.58
2023-09-17T05:45:09.998Z,16.76
2023-09-17T05:46:07.085Z,16.85
2023-09-17T05:47:04.457Z,16.74
2023-09-17T05:48:01.524Z,16.88
2023-09-17T05:48:58.622Z,16.94
2023-09-17T05:49:57.285Z,17.02
2023-09-17T05:50:55.558Z,17.07
2023-09-17T05:51:54.871Z,17.16
2023-09-17T05:52:52.032Z,17.19
2023-09-17T05:53:49.339Z,17.23
2023-09-17T05:54:46.608Z,17.23
2023-09-17T05:55:44.940Z,17.28
2023-09-17T05:56:41.947Z,17.14
2023-09-17T05:57:39.158Z,17.21
2023-09-17T05:58:36.351Z,17.25
2023-09-17T05:59:33.450Z,17.28
2023-09-17T06:00:30.508Z,17.32
2023-09-17T06:01:27.696Z,17.37
2023-09-17T06:02:24.913Z,17.29
2023-09-17T06:03:22.562Z,17.37
2023-09-17T06:04:19.543Z,17.49
2023-09-17T06:05:16.567Z,17.55
2023-09-17T06:06:13.594Z,17.49
2023-09-17T06:07:10.617Z,17.52
2023-09-17T06:08:07.978Z,17.58
2023-09-17T06:09:05.301Z,17.61
2023-09-17T06:10:02.584Z,17.72
2023-09-17T06:10:59.710Z,17.80
2023-09-17T06:11:58.350Z,17.89
2023-09-17T06:12:55.683Z,17.97
2023-09-17T06:13:53.083Z,17.89
2023-09-17T06:14:50.607Z,17.88
2023-09-17T06:15:47.660Z,18.03
2023-09-17T06:16:56.545Z,18.13
2023-09-17T06:17:54.073Z,18.23
2023-09-17T06:18:51.177Z,18.37
2023-09-17T06:19:48.332Z,18.47
2023-09-17T06:20:45.828Z,18.49
2023-09-17T06:21:43.378Z,18.59
2023-09-17T06:22:40.428Z,18.69
2023-09-17T06:23:38.325Z,18.83
2023-09-17T06:24:35.536Z,18.98
2023-09-17T06:25:33.547Z,19.07
2023-09-17T06:26:30.668Z,19.19
2023-09-17T06:27:27.750Z,19.32
2023-09-17T06:28:24.800Z,19.41
2023-09-17T06:29:22.055Z,19.51
2023-09-17T06:30:19.332Z,19.57
2023-09-17T06:31:16.865Z,19.72
2023-09-17T06:32:14.204Z,19.85
2023-09-17T06:33:11.432Z,19.96
2023-09-17T06:34:09.024Z,20.06
2023-09-17T06:35:06.781Z,20.15
2023-09-17T06:36:05.165Z,20.23
2023-09-17T06:37:03.152Z,20.30
2023-09-17T06:38:00.256Z,20.30
2023-09-17T06:38:57.310Z,20.32
2023-09-17T06:39:54.275Z,20.29
2023-09-17T06:40:51.440Z,20.31
2023-09-17T06:41:48.619Z,20.45
2023-09-17T06:42:45.727Z,20.54
2023-09-17T06:43:42.901Z,20.63
2023-09-17T06:44:39.965Z,20.75
2023-09-17T06:45:37.094Z,20.83
2023-09-17T06:46:34.291Z,20.86
2023-09-17T06:47:31.924Z,20.85
2023-09-17T06:48:29.084Z,20.88
2023-09-17T06:49:26.088Z,20.95
2023-09-17T06:50:23.164Z,20.98
2023-09-17T06:51:22.304Z,21.00
2023-09-17T06:52:22.246Z,20.97
2023-09-17T06:53:20.082Z,20.95
2023-09-17T06:54:17.173Z,21.00
2023-09-17T06:55:14.276Z,21.08
2023-09-17T06:56:13.966Z,21.21
2023-09-17T06:57:11.261Z,21.29
2023-09-17T06:58:08.352Z,21.32
2023-09-17T06:59:06.767Z,21.36
2023-09-17T07:00:04.629Z,21.34
2023-09-17T07:01:01.665Z,21.43
2023-09-17T07:01:58.882Z,21.47
2023-09-17T07:02:56.273Z,21.56
2023-09-17T07:03:54.490Z,21.68
2023-09-17T07:04:51.715Z,21.71
2023-09-17T07:05:49.286Z,21.85
2023-09-17T07:06:46.564Z,22.02
2023-09-17T07:07:44.560Z,22.16
2023-09-17T07:08:41.881Z,22.07
2023-09-17T07:09:39.001Z,22.12
2023-09-17T07:10:36.026Z,22.27
2023-09-17T07:11:33.112Z,22.37
2023-09-17T07:12:30.091Z,22.45
2023-09-17T07:13:27.550Z,22.53
2023-09-17T07:14:25.234Z,22.59
2023-09-17T07:15:23.326Z,22.56
2023-09-17T07:16:20.629Z,22.30
2023-09-17T07:17:18.020Z,22.32
2023-09-17T07:18:15.959Z,22.22
2023-09-17T07:19:13.070Z,22.20
2023-09-17T07:20:10.782Z,22.38
2023-09-17T07:21:07.785Z,22.36
2023-09-17T07:22:05.157Z,22.41
2023-09-17T07:23:02.287Z,22.32
2023-09-17T07:23:59.417Z,22.31
2023-09-17T07:25:00.050Z,22.36
2023-09-17T07:25:57.272Z,22.40
2023-09-17T07:26:54.250Z,22.43
2023-09-17T07:27:51.584Z,22.43
2023-09-17T07:28:48.578Z,22.32
2023-09-17T07:29:47.185Z,22.21
2023-09-17T07:30:44.298Z,22.24
2023-09-17T07:31:42.744Z,22.18
2023-09-17T07:32:39.929Z,22.18
2023-09-17T07:33:37.034Z,22.19
2023-09-17T07:34:34.012Z,22.18
2023-09-17T07:35:34.500Z,22.24
2023-09-17T07:36:31.631Z,22.32
2023-09-17T07:37:36.930Z,22.36
2023-09-17T07:38:45.722Z,22.39
2023-09-17T07:39:45.290Z,22.37
2023-09-17T07:40:42.386Z,22.39
2023-09-17T07:41:39.503Z,22.36
2023-09-17T07:42:36.508Z,22.37
2023-09-17T07:43:33.565Z,22.48
2023-09-17T07:44:30.610Z,22.58
2023-09-17T07:45:28.642Z,22.65
2023-09-17T07:46:25.789Z,22.72
2023-09-17T07:47:22.906Z,22.74
2023-09-17T07:48:21.528Z,22.78
2023-09-17T07:49:20.192Z,22.79
2023-09-17T07:50:17.473Z,22.63
2023-09-17T07:51:14.705Z,22.52
2023-09-17T07:52:11.656Z,22.58
2023-09-17T07:53:09.041Z,22.54
2023-09-17T07:54:06.435Z,22.64
2023-09-17T07:55:03.634Z,22.75
2023-09-17T07:56:00.794Z,22.78
2023-09-17T07:56:58.150Z,22.81
2023-09-17T07:57:56.294Z,22.90
2023-09-17T07:58:53.263Z,22.92
2023-09-17T07:59:50.711Z,22.85
2023-09-17T08:00:47.905Z,22.93
2023-09-17T08:01:45.784Z,22.95
2023-09-17T08:02:45.220Z,22.92
2023-09-17T08:03:42.658Z,22.98
2023-09-17T08:04:39.740Z,23.00
2023-09-17T08:05:37.041Z,23.01
2023-09-17T08:06:36.069Z,23.08
2023-09-17T08:07:33.220Z,23.09
2023-09-17T08:08:30.443Z,23.07
2023-09-17T08:09:27.682Z,23.10
2023-09-17T08:10:24.800Z,23.14
2023-09-17T08:11:23.318Z,23.14
2023-09-17T08:12:20.310Z,23.18
2023-09-17T08:13:17.734Z,23.27
2023-09-17T08:14:15.702Z,23.34
2023-09-17T08:15:13.943Z,23.33
2023-09-17T08:16:11.061Z,23.34
2023-09-17T08:17:08.218Z,23.34
2023-09-17T08:18:05.809Z,23.24
2023-09-17T08:19:02.821Z,23.33
2023-09-17T08:20:00.410Z,23.40
2023-09-17T08:20:57.448Z,23.50
2023-09-17T08:21:54.501Z,23.48
2023-09-17T08:22:52.987Z,23.40
2023-09-17T08:23:50.545Z,23.42
2023-09-17T08:24:48.650Z,23.46
2023-09-17T08:25:45.707Z,23.53
2023-09-17T08:26:42.741Z,23.55
2023-09-17T08:27:40.929Z,23.59
2023-09-17T08:28:38.999Z,23.57
2023-09-17T08:29:36.031Z,23.55
2023-09-17T08:30:33.083Z,23.57
2023-09-17T08:31:30.122Z,23.66
2023-09-17T08:32:27.405Z,23.64
2023-09-17T08:33:24.429Z,23.71
2023-09-17T08:34:22.561Z,23.78
2023-09-17T08:35:19.808Z,23.71
2023-09-17T08:36:17.175Z,23.68
2023-09-17T08:37:14.451Z,23.66
2023-09-17T08:38:12.082Z,23.69
2023-09-17T08:39:09.310Z,23.67
2023-09-17T08:40:14.847Z,23.77
2023-09-17T08:41:13.573Z,23.71
2023-09-17T08:42:10.804Z,23.82
2023-09-17T08:43:07.809Z,23.82
2023-09-17T08:44:08.102Z,23.80
2023-09-17T08:45:06.141Z,23.90
2023-09-17T08:46:05.044Z,23.97
2023-09-17T08:47:02.197Z,24.05
2023-09-17T08:48:00.149Z,24.12
2023-09-17T08:48:57.244Z,24.21
2023-09-17T08:49:54.269Z,24.25
2023-09-17T08:50:52.694Z,24.24
2023-09-17T08:51:51.855Z,24.21
2023-09-17T08:52:55.315Z,24.25
2023-09-17T08:54:05.918Z,24.24
2023-09-17T08:55:06.316Z,24.27
2023-09-17T08:56:05.106Z,24.30
2023-09-17T08:57:03.402Z,24.24
2023-09-17T08:58:17.844Z,24.22
2023-09-17T08:59:27.663Z,24.18
2023-09-17T09:00:24.794Z,24.14
2023-09-17T09:01:26.290Z,24.15
2023-09-17T09:02:28.955Z,24.10
2023-09-17T09:03:27.430Z,24.12
2023-09-17T09:04:26.213Z,24.27
2023-09-17T09:05:27.193Z,24.26
2023-09-17T09:06:26.295Z,24.36
2023-09-17T09:07:24.184Z,24.37
2023-09-17T09:08:22.570Z,24.45
2023-09-17T09:09:22.096Z,24.50
2023-09-17T09:10:19.902Z,24.51
2023-09-17T09:11:17.536Z,24.45
2023-09-17T09:12:17.315Z,24.38
2023-09-17T09:13:14.657Z,24.39
2023-09-17T09:14:12.112Z,24.37
2023-09-17T09:15:11.599Z,24.39
2023-09-17T09:16:09.094Z,24.37
2023-09-17T09:17:06.129Z,24.45
2023-09-17T09:18:04.508Z,24.43
2023-09-17T09:19:01.865Z,24.53
2023-09-17T09:19:59.003Z,24.57
2023-09-17T09:20:56.094Z,24.62
2023-09-17T09:21:53.405Z,24.72
2023-09-17T09:22:50.409Z,24.72
2023-09-17T09:23:47.337Z,24.69
2023-09-17T09:24:48.670Z,24.61
2023-09-17T09:25:46.009Z,24.53
2023-09-17T09:26:43.043Z,24.57
2023-09-17T09:27:40.017Z,24.59
2023-09-17T09:28:37.438Z,24.73
2023-09-17T09:29:34.502Z,24.76
2023-09-17T09:30:31.618Z,24.82
2023-09-17T09:31:30.887Z,24.75
2023-09-17T09:32:28.077Z,24.68
2023-09-17T09:33:26.202Z,24.70
2023-09-17T09:34:26.544Z,24.71
2023-09-17T09:35:24.995Z,24.80
2023-09-17T09:36:22.413Z,24.90
2023-09-17T09:37:24.598Z,24.94
2023-09-17T09:38:21.799Z,25.04
2023-09-17T09:39:18.957Z,25.02
2023-09-17T09:40:16.293Z,25.11
2023-09-17T09:41:14.397Z,25.10
2023-09-17T09:42:13.247Z,25.09
2023-09-17T09:43:31.802Z,25.09
2023-09-17T09:44:31.734Z,25.18
2023-09-17T09:45:29.627Z,25.29
2023-09-17T09:46:26.573Z,25.36
2023-09-17T09:47:24.519Z,25.24
2023-09-17T09:48:21.533Z,25.29
2023-09-17T09:49:18.679Z,25.34
2023-09-17T09:50:29.326Z,25.37
2023-09-17T09:51:28.721Z,25.40
2023-09-17T09:52:25.700Z,25.45
2023-09-17T09:53:22.783Z,25.43
2023-09-17T09:54:20.084Z,25.43
2023-09-17T09:55:17.274Z,25.37
2023-09-17T09:56:14.405Z,25.28
2023-09-17T09:57:18.298Z,25.29
2023-09-17T09:58:15.751Z,25.36
2023-09-17T09:59:12.989Z,25.37
2023-09-17T10:00:18.294Z,25.43
2023-09-17T10:01:18.167Z,25.48
2023-09-17T10:02:17.077Z,25.59
2023-09-17T10:03:15.385Z,25.46
2023-09-17T10:04:12.880Z,25.47
2023-09-17T10:05:12.403Z,25.46
2023-09-17T10:06:09.665Z,25.54
2023-09-17T10:07:08.980Z,25.60
2023-09-17T10:08:07.244Z,25.66
2023-09-17T10:09:04.913Z,25.67
2023-09-17T10:10:02.058Z,25.58
2023-09-17T10:10:59.126Z,25.61
2023-09-17T10:11:56.564Z,25.61
2023-09-17T10:12:54.412Z,25.57
2023-09-17T10:14:17.417Z,25.60
2023-09-17T10:15:14.508Z,25.55
2023-09-17T10:16:12.092Z,25.54
2023-09-17T10:17:11.735Z,25.57
2023-09-17T10:18:13.740Z,25.66
2023-09-17T10:19:11.863Z,25.70
2023-09-17T10:20:10.309Z,25.65
2023-09-17T10:21:07.398Z,25.70
2023-09-17T10:22:11.456Z,25.76
2023-09-17T10:23:08.775Z,25.86
2023-09-17T10:24:07.093Z,25.96
2023-09-17T10:25:08.507Z,26.00
2023-09-17T10:26:07.157Z,25.98
2023-09-17T10:27:06.091Z,26.01
2023-09-17T10:28:04.285Z,26.01
2023-09-17T10:29:02.045Z,25.85
2023-09-17T10:30:00.587Z,25.99
2023-09-17T10:30:58.310Z,26.02
2023-09-17T10:31:57.431Z,26.05
2023-09-17T10:32:55.589Z,26.06
2023-09-17T10:33:53.832Z,26.10
2023-09-17T10:34:51.751Z,26.15
2023-09-17T10:35:49.511Z,25.99
2023-09-17T10:36:48.735Z,25.91
2023-09-17T10:37:47.679Z,25.95
2023-09-17T10:38:45.941Z,25.82
2023-09-17T10:39:44.085Z,25.77
2023-09-17T10:40:41.126Z,25.76
2023-09-17T10:41:39.029Z,25.85
2023-09-17T10:42:36.730Z,25.86
2023-09-17T10:43:36.688Z,25.61
2023-09-17T10:44:38.249Z,25.59
2023-09-17T10:45:39.014Z,25.74
2023-09-17T10:46:36.774Z,25.80
2023-09-17T10:47:34.962Z,25.78
2023-09-17T10:48:33.333Z,25.87
2023-09-17T10:49:32.875Z,25.79
2023-09-17T10:50:31.229Z,25.91
2023-09-17T10:51:28.635Z,26.02
2023-09-17T10:52:26.484Z,26.01
2023-09-17T10:53:23.752Z,26.03
2023-09-17T10:54:20.911Z,26.03
2023-09-17T10:55:18.109Z,26.03
2023-09-17T10:56:15.230Z,26.05
2023-09-17T10:57:23.265Z,26.19
2023-09-17T10:58:23.852Z,26.29
2023-09-17T10:59:20.619Z,26.08
2023-09-17T11:00:20.054Z,26.14
2023-09-17T11:01:22.860Z,26.13
2023-09-17T11:02:20.371Z,26.24
2023-09-17T11:03:21.517Z,26.34
2023-09-17T11:04:21.044Z,26.18
2023-09-17T11:05:20.692Z,26.09
2023-09-17T11:06:25.345Z,26.19
2023-09-17T11:07:22.609Z,25.95
2023-09-17T11:08:19.620Z,26.10
2023-09-17T11:09:16.615Z,26.30
2023-09-17T11:10:29.524Z,26.23
2023-09-17T11:11:30.877Z,26.37
2023-09-17T11:12:27.895Z,26.41
2023-09-17T11:13:25.222Z,26.52
2023-09-17T11:14:22.319Z,26.65
2023-09-17T11:15:19.751Z,26.76
2023-09-17T11:16:17.248Z,26.89
2023-09-17T11:17:19.371Z,26.93
2023-09-17T11:18:16.780Z,27.14
2023-09-17T11:19:18.138Z,27.19
2023-09-17T11:20:19.404Z,27.26
2023-09-17T11:21:16.874Z,27.38
2023-09-17T11:22:14.259Z,27.28
2023-09-17T11:23:12.665Z,27.23
2023-09-17T11:24:14.406Z,27.29
2023-09-17T11:25:12.091Z,27.27
2023-09-17T11:26:09.152Z,27.37
2023-09-17T11:27:07.574Z,27.38
2023-09-17T11:28:13.042Z,27.38
2023-09-17T11:29:11.185Z,27.19
2023-09-17T11:30:16.390Z,26.98
2023-09-17T11:31:16.457Z,27.14
2023-09-17T11:32:22.264Z,27.17
2023-09-17T11:33:19.357Z,27.18
2023-09-17T11:34:16.421Z,27.19
2023-09-17T11:35:13.721Z,27.29
2023-09-17T11:36:11.275Z,27.36
2023-09-17T11:37:08.496Z,27.42
2023-09-17T11:38:05.664Z,27.49
2023-09-17T11:39:07.326Z,27.44
2023-09-17T11:40:06.953Z,27.44
2023-09-17T11:41:08.442Z,27.27
2023-09-17T11:42:08.893Z,27.33
2023-09-17T11:43:06.367Z,27.03
2023-09-17T11:44:06.186Z,27.04
2023-09-17T11:45:03.810Z,27.19
2023-09-17T11:46:05.880Z,27.22
2023-09-17T11:47:03.312Z,27.26
2023-09-17T11:48:02.994Z,27.33
2023-09-17T11:49:00.072Z,27.45
2023-09-17T11:49:57.354Z,27.43
2023-09-17T11:51:33.402Z,27.39
2023-09-17T11:52:30.496Z,27.33
2023-09-17T11:53:27.550Z,27.40
2023-09-17T11:54:30.234Z,27.17
2023-09-17T11:55:28.184Z,27.04
2023-09-17T11:56:27.263Z,27.24
2023-09-17T11:57:25.378Z,27.36
2023-09-17T11:58:22.713Z,27.22
2023-09-17T11:59:20.022Z,27.28
2023-09-17T12:00:29.845Z,27.37
2023-09-17T12:01:29.893Z,27.41
2023-09-17T12:02:28.327Z,27.38
2023-09-17T12:03:28.239Z,27.41
2023-09-17T12:04:27.522Z,27.32
2023-09-17T12:05:26.492Z,27.34
2023-09-17T12:06:24.185Z,27.36
2023-09-17T12:07:21.576Z,27.20
2023-09-17T12:08:21.591Z,27.22
2023-09-17T12:09:32.882Z,27.40
2023-09-17T12:10:30.573Z,27.52
2023-09-17T12:11:27.898Z,27.37
2023-09-17T12:12:25.053Z,27.11
2023-09-17T12:13:22.226Z,27.17
2023-09-17T12:14:20.904Z,26.87
2023-09-17T12:15:18.076Z,26.94
2023-09-17T12:16:16.481Z,27.09
2023-09-17T12:17:17.785Z,27.23
2023-09-17T12:18:16.212Z,27.32
2023-09-17T12:19:18.161Z,27.38
2023-09-17T12:20:42.397Z,27.33
2023-09-17T12:21:42.396Z,27.27
2023-09-17T12:22:39.496Z,27.33
2023-09-17T12:23:48.604Z,27.38
2023-09-17T12:24:49.004Z,27.51
2023-09-17T12:25:47.981Z,27.58
2023-09-17T12:27:06.857Z,27.56
2023-09-17T12:28:04.202Z,27.58
2023-09-17T12:29:01.493Z,27.52
2023-09-17T12:29:58.633Z,27.40
2023-09-17T12:30:56.207Z,27.33
2023-09-17T12:31:53.269Z,27.45
2023-09-17T12:32:50.728Z,27.40